sensor_id;sensor_type;location;lat;lon;timestamp;pressure;altitude;pressure_sealevel;temperature;humidity
79705;BME280;69940;53.120;8.764;2023-08-20T00:00:29;102173.00;;;20.26;84.04
79705;BME280;69940;53.120;8.764;2023-08-20T00:03:03;102171.00;;;20.22;84.09
79705;BME280;69940;53.120;8.764;2023-08-20T00:05:29;102170.00;;;20.17;84.04
79705;BME280;69940;53.120;8.764;2023-08-20T00:07:59;102168.00;;;20.14;84.17
79705;BME280;69940;53.120;8.764;2023-08-20T00:10:28;102168.00;;;20.11;83.92
79705;BME280;69940;53.120;8.764;2023-08-20T00:12:59;102166.00;;;20.10;84.02
79705;BME280;69940;53.120;8.764;2023-08-20T00:15:28;102164.00;;;20.08;83.81
79705;BME280;69940;53.120;8.764;2023-08-20T00:17:59;102163.00;;;20.04;83.95
79705;BME280;69940;53.120;8.764;2023-08-20T00:20:30;102162.00;;;20.01;84.00
79705;BME280;69940;53.120;8.764;2023-08-20T00:22:59;102162.00;;;19.98;84.07
79705;BME280;69940;53.120;8.764;2023-08-20T00:25:30;102162.00;;;19.94;84.09
79705;BME280;69940;53.120;8.764;2023-08-20T00:27:58;102162.00;;;19.90;84.23
79705;BME280;69940;53.120;8.764;2023-08-20T00:30:29;102163.00;;;19.86;84.26
79705;BME280;69940;53.120;8.764;2023-08-20T00:32:58;102164.00;;;19.84;84.23
79705;BME280;69940;53.120;8.764;2023-08-20T00:35:29;102164.00;;;19.83;83.90
79705;BME280;69940;53.120;8.764;2023-08-20T00:37:59;102166.00;;;19.84;83.62
79705;BME280;69940;53.120;8.764;2023-08-20T00:40:30;102167.00;;;19.85;83.30
79705;BME280;69940;53.120;8.764;2023-08-20T00:42:59;102169.00;;;19.85;83.21
79705;BME280;69940;53.120;8.764;2023-08-20T00:45:29;102170.00;;;19.84;83.25
79705;BME280;69940;53.120;8.764;2023-08-20T00:47:58;102172.00;;;19.82;83.29
79705;BME280;69940;53.120;8.764;2023-08-20T00:50:29;102172.00;;;19.81;83.17
79705;BME280;69940;53.120;8.764;2023-08-20T00:52:59;102173.00;;;19.80;83.24
79705;BME280;69940;53.120;8.764;2023-08-20T00:55:29;102173.00;;;19.78;83.11
79705;BME280;69940;53.120;8.764;2023-08-20T00:57:59;102173.00;;;19.77;83.16
79705;BME280;69940;53.120;8.764;2023-08-20T01:00:29;102171.00;;;19.76;82.96
79705;BME280;69940;53.120;8.764;2023-08-20T01:02:59;102170.00;;;19.76;82.82
79705;BME280;69940;53.120;8.764;2023-08-20T01:05:33;102169.00;;;19.75;82.87
79705;BME280;69940;53.120;8.764;2023-08-20T01:10:56;102168.00;;;19.67;83.04
79705;BME280;69940;53.120;8.764;2023-08-20T01:13:00;102169.00;;;19.60;83.40
79705;BME280;69940;53.120;8.764;2023-08-20T01:15:28;102170.00;;;19.51;83.70
79705;BME280;69940;53.120;8.764;2023-08-20T01:17:59;102170.00;;;19.43;83.82
79705;BME280;69940;53.120;8.764;2023-08-20T01:20:38;102171.00;;;19.38;83.82
79705;BME280;69940;53.120;8.764;2023-08-20T01:23:12;102172.00;;;19.35;83.60
79705;BME280;69940;53.120;8.764;2023-08-20T01:25:44;102171.00;;;19.35;83.39
79705;BME280;69940;53.120;8.764;2023-08-20T01:28:23;102171.00;;;19.35;83.19
79705;BME280;69940;53.120;8.764;2023-08-20T01:30:29;102172.00;;;19.35;83.13
79705;BME280;69940;53.120;8.764;2023-08-20T01:32:59;102172.00;;;19.35;82.89
79705;BME280;69940;53.120;8.764;2023-08-20T01:35:29;102173.00;;;19.35;82.94
79705;BME280;69940;53.120;8.764;2023-08-20T01:37:59;102172.00;;;19.34;82.82
79705;BME280;69940;53.120;8.764;2023-08-20T01:40:28;102171.00;;;19.33;82.62
79705;BME280;69940;53.120;8.764;2023-08-20T01:42:59;102170.00;;;19.31;82.61
79705;BME280;69940;53.120;8.764;2023-08-20T01:45:28;102170.00;;;19.29;82.83
79705;BME280;69940;53.120;8.764;2023-08-20T01:47:59;102170.00;;;19.28;82.81
79705;BME280;69940;53.120;8.764;2023-08-20T01:50:29;102171.00;;;19.24;82.75
79705;BME280;69940;53.120;8.764;2023-08-20T01:52:58;102172.00;;;19.19;83.02
79705;BME280;69940;53.120;8.764;2023-08-20T01:55:29;102174.00;;;19.14;83.19
79705;BME280;69940;53.120;8.764;2023-08-20T01:57:58;102176.00;;;19.07;83.41
79705;BME280;69940;53.120;8.764;2023-08-20T02:00:31;102179.00;;;18.99;83.69
79705;BME280;69940;53.120;8.764;2023-08-20T02:02:58;102182.00;;;18.92;83.93
79705;BME280;69940;53.120;8.764;2023-08-20T02:05:29;102184.00;;;18.87;84.22
79705;BME280;69940;53.120;8.764;2023-08-20T02:07:59;102184.00;;;18.85;84.00
79705;BME280;69940;53.120;8.764;2023-08-20T02:10:29;102184.00;;;18.85;83.70
79705;BME280;69940;53.120;8.764;2023-08-20T02:12:59;102183.00;;;18.86;83.45
79705;BME280;69940;53.120;8.764;2023-08-20T02:15:28;102183.00;;;18.87;83.17
79705;BME280;69940;53.120;8.764;2023-08-20T02:17:59;102182.00;;;18.86;83.36
79705;BME280;69940;53.120;8.764;2023-08-20T02:20:29;102183.00;;;18.84;83.50
79705;BME280;69940;53.120;8.764;2023-08-20T02:22:59;102183.00;;;18.84;83.42
79705;BME280;69940;53.120;8.764;2023-08-20T02:25:29;102183.00;;;18.85;83.00
79705;BME280;69940;53.120;8.764;2023-08-20T02:27:58;102185.00;;;18.86;82.73
79705;BME280;69940;53.120;8.764;2023-08-20T02:30:29;102186.00;;;18.84;82.90
79705;BME280;69940;53.120;8.764;2023-08-20T02:32:59;102188.00;;;18.80;83.24
79705;BME280;69940;53.120;8.764;2023-08-20T02:35:29;102189.00;;;18.73;83.64
79705;BME280;69940;53.120;8.764;2023-08-20T02:37:59;102190.00;;;18.67;83.87
79705;BME280;69940;53.120;8.764;2023-08-20T02:40:28;102189.00;;;18.63;83.94
79705;BME280;69940;53.120;8.764;2023-08-20T02:42:59;102189.00;;;18.61;83.71
79705;BME280;69940;53.120;8.764;2023-08-20T02:45:29;102190.00;;;18.62;83.32
79705;BME280;69940;53.120;8.764;2023-08-20T02:47:59;102191.00;;;18.61;83.34
79705;BME280;69940;53.120;8.764;2023-08-20T02:50:28;102191.00;;;18.60;83.48
79705;BME280;69940;53.120;8.764;2023-08-20T02:52:59;102193.00;;;18.58;83.26
79705;BME280;69940;53.120;8.764;2023-08-20T02:55:29;102194.00;;;18.58;83.21
79705;BME280;69940;53.120;8.764;2023-08-20T02:57:59;102194.00;;;18.58;83.07
79705;BME280;69940;53.120;8.764;2023-08-20T03:00:30;102195.00;;;18.59;82.80
79705;BME280;69940;53.120;8.764;2023-08-20T03:02:59;102196.00;;;18.61;82.63
79705;BME280;69940;53.120;8.764;2023-08-20T03:05:29;102197.00;;;18.63;82.55
79705;BME280;69940;53.120;8.764;2023-08-20T03:08:02;102197.00;;;18.64;82.58
79705;BME280;69940;53.120;8.764;2023-08-20T03:10:29;102197.00;;;18.65;82.65
79705;BME280;69940;53.120;8.764;2023-08-20T03:12:59;102197.00;;;18.66;82.63
79705;BME280;69940;53.120;8.764;2023-08-20T03:15:29;102197.00;;;18.66;82.64
79705;BME280;69940;53.120;8.764;2023-08-20T03:17:59;102197.00;;;18.66;82.34
79705;BME280;69940;53.120;8.764;2023-08-20T03:20:31;102198.00;;;18.62;82.76
79705;BME280;69940;53.120;8.764;2023-08-20T03:22:59;102198.00;;;18.57;83.15
79705;BME280;69940;53.120;8.764;2023-08-20T03:25:29;102198.00;;;18.50;83.51
79705;BME280;69940;53.120;8.764;2023-08-20T03:27:58;102197.00;;;18.43;83.75
79705;BME280;69940;53.120;8.764;2023-08-20T03:30:29;102198.00;;;18.39;83.73
79705;BME280;69940;53.120;8.764;2023-08-20T03:32:58;102199.00;;;18.37;83.35
79705;BME280;69940;53.120;8.764;2023-08-20T03:35:28;102201.00;;;18.38;83.14
79705;BME280;69940;53.120;8.764;2023-08-20T03:37:58;102205.00;;;18.39;82.96
79705;BME280;69940;53.120;8.764;2023-08-20T03:40:28;102208.00;;;18.38;82.81
79705;BME280;69940;53.120;8.764;2023-08-20T03:42:59;102210.00;;;18.34;83.20
79705;BME280;69940;53.120;8.764;2023-08-20T03:45:28;102212.00;;;18.29;83.49
79705;BME280;69940;53.120;8.764;2023-08-20T03:47:58;102213.00;;;18.24;83.79
79705;BME280;69940;53.120;8.764;2023-08-20T03:50:28;102216.00;;;18.19;83.98
79705;BME280;69940;53.120;8.764;2023-08-20T03:52:58;102218.00;;;18.15;83.93
79705;BME280;69940;53.120;8.764;2023-08-20T03:55:30;102221.00;;;18.13;83.77
79705;BME280;69940;53.120;8.764;2023-08-20T03:57:58;102224.00;;;18.12;83.66
79705;BME280;69940;53.120;8.764;2023-08-20T04:00:28;102226.00;;;18.11;83.81
79705;BME280;69940;53.120;8.764;2023-08-20T04:02:58;102229.00;;;18.09;84.04
79705;BME280;69940;53.120;8.764;2023-08-20T04:05:28;102232.00;;;18.06;84.19
79705;BME280;69940;53.120;8.764;2023-08-20T04:07:58;102233.00;;;18.03;84.43
79705;BME280;69940;53.120;8.764;2023-08-20T04:10:29;102235.00;;;18.01;84.58
79705;BME280;69940;53.120;8.764;2023-08-20T04:12:59;102239.00;;;18.00;84.57
79705;BME280;69940;53.120;8.764;2023-08-20T04:15:28;102241.00;;;17.99;84.67
79705;BME280;69940;53.120;8.764;2023-08-20T04:17:59;102242.00;;;17.99;84.70
79705;BME280;69940;53.120;8.764;2023-08-20T04:20:29;102242.00;;;18.00;84.69
79705;BME280;69940;53.120;8.764;2023-08-20T04:22:59;102244.00;;;18.01;84.84
79705;BME280;69940;53.120;8.764;2023-08-20T04:25:29;102242.00;;;18.03;84.82
79705;BME280;69940;53.120;8.764;2023-08-20T04:27:59;102242.00;;;18.05;84.62
79705;BME280;69940;53.120;8.764;2023-08-20T04:30:29;102243.00;;;18.07;84.78
79705;BME280;69940;53.120;8.764;2023-08-20T04:32:58;102242.00;;;18.09;84.93
79705;BME280;69940;53.120;8.764;2023-08-20T04:35:29;102238.00;;;18.13;84.47
79705;BME280;69940;53.120;8.764;2023-08-20T04:37:58;102234.00;;;18.17;83.79
79705;BME280;69940;53.120;8.764;2023-08-20T04:40:28;102230.00;;;18.21;83.58
79705;BME280;69940;53.120;8.764;2023-08-20T04:42:58;102225.00;;;18.23;83.51
79705;BME280;69940;53.120;8.764;2023-08-20T04:45:29;102218.00;;;18.26;83.67
79705;BME280;69940;53.120;8.764;2023-08-20T04:47:59;102211.00;;;18.29;83.47
79705;BME280;69940;53.120;8.764;2023-08-20T04:50:28;102207.00;;;18.32;83.33
79705;BME280;69940;53.120;8.764;2023-08-20T04:53:01;102207.00;;;18.35;83.15
79705;BME280;69940;53.120;8.764;2023-08-20T04:55:29;102207.00;;;18.37;83.28
79705;BME280;69940;53.120;8.764;2023-08-20T04:57:58;102210.00;;;18.38;83.38
79705;BME280;69940;53.120;8.764;2023-08-20T05:00:29;102213.00;;;18.38;83.58
79705;BME280;69940;53.120;8.764;2023-08-20T05:02:59;102217.00;;;18.38;83.67
79705;BME280;69940;53.120;8.764;2023-08-20T05:05:28;102222.00;;;18.38;83.77
79705;BME280;69940;53.120;8.764;2023-08-20T05:07:58;102224.00;;;18.38;83.82
79705;BME280;69940;53.120;8.764;2023-08-20T05:10:28;102226.00;;;18.40;83.76
79705;BME280;69940;53.120;8.764;2023-08-20T05:12:58;102228.00;;;18.41;83.79
79705;BME280;69940;53.120;8.764;2023-08-20T05:15:28;102232.00;;;18.42;83.92
79705;BME280;69940;53.120;8.764;2023-08-20T05:17:58;102237.00;;;18.42;84.11
79705;BME280;69940;53.120;8.764;2023-08-20T05:20:28;102240.00;;;18.42;84.28
79705;BME280;69940;53.120;8.764;2023-08-20T05:22:59;102242.00;;;18.43;84.48
79705;BME280;69940;53.120;8.764;2023-08-20T05:25:28;102245.00;;;18.46;84.49
79705;BME280;69940;53.120;8.764;2023-08-20T05:27:58;102249.00;;;18.50;84.34
79705;BME280;69940;53.120;8.764;2023-08-20T05:30:29;102253.00;;;18.55;84.34
79705;BME280;69940;53.120;8.764;2023-08-20T05:32:59;102255.00;;;18.61;84.20
79705;BME280;69940;53.120;8.764;2023-08-20T05:35:29;102257.00;;;18.66;84.13
79705;BME280;69940;53.120;8.764;2023-08-20T05:37:59;102259.00;;;18.71;84.08
79705;BME280;69940;53.120;8.764;2023-08-20T05:40:28;102263.00;;;18.75;83.99
79705;BME280;69940;53.120;8.764;2023-08-20T05:42:58;102267.00;;;18.79;83.91
79705;BME280;69940;53.120;8.764;2023-08-20T05:45:28;102270.00;;;18.83;83.97
79705;BME280;69940;53.120;8.764;2023-08-20T05:47:59;102274.00;;;18.86;83.95
79705;BME280;69940;53.120;8.764;2023-08-20T05:50:29;102276.00;;;18.90;83.94
79705;BME280;69940;53.120;8.764;2023-08-20T05:52:58;102278.00;;;18.92;83.85
79705;BME280;69940;53.120;8.764;2023-08-20T05:55:28;102279.00;;;18.96;83.87
79705;BME280;69940;53.120;8.764;2023-08-20T05:57:58;102280.00;;;19.00;83.70
79705;BME280;69940;53.120;8.764;2023-08-20T06:00:28;102281.00;;;19.03;83.54
79705;BME280;69940;53.120;8.764;2023-08-20T06:02:58;102281.00;;;19.06;83.68
79705;BME280;69940;53.120;8.764;2023-08-20T06:05:29;102281.00;;;19.08;83.62
79705;BME280;69940;53.120;8.764;2023-08-20T06:07:59;102282.00;;;19.12;83.75
79705;BME280;69940;53.120;8.764;2023-08-20T06:10:29;102278.00;;;19.15;83.67
79705;BME280;69940;53.120;8.764;2023-08-20T06:12:58;102276.00;;;19.19;83.29
79705;BME280;69940;53.120;8.764;2023-08-20T06:15:28;102273.00;;;19.23;83.23
79705;BME280;69940;53.120;8.764;2023-08-20T06:17:59;102270.00;;;19.26;82.83
79705;BME280;69940;53.120;8.764;2023-08-20T06:20:28;102266.00;;;19.30;82.62
79705;BME280;69940;53.120;8.764;2023-08-20T06:22:58;102264.00;;;19.33;82.47
79705;BME280;69940;53.120;8.764;2023-08-20T06:25:28;102262.00;;;19.36;82.36
79705;BME280;69940;53.120;8.764;2023-08-20T06:27:59;102262.00;;;19.40;82.32
79705;BME280;69940;53.120;8.764;2023-08-20T06:30:29;102264.00;;;19.43;82.40
79705;BME280;69940;53.120;8.764;2023-08-20T06:32:58;102267.00;;;19.47;82.25
79705;BME280;69940;53.120;8.764;2023-08-20T06:35:28;102270.00;;;19.50;81.98
79705;BME280;69940;53.120;8.764;2023-08-20T06:37:59;102271.00;;;19.54;81.85
79705;BME280;69940;53.120;8.764;2023-08-20T06:40:29;102275.00;;;19.58;81.63
79705;BME280;69940;53.120;8.764;2023-08-20T06:42:59;102276.00;;;19.63;81.39
79705;BME280;69940;53.120;8.764;2023-08-20T06:45:29;102277.00;;;19.67;81.21
79705;BME280;69940;53.120;8.764;2023-08-20T06:47:59;102277.00;;;19.71;80.97
79705;BME280;69940;53.120;8.764;2023-08-20T06:50:29;102276.00;;;19.76;81.03
79705;BME280;69940;53.120;8.764;2023-08-20T06:52:58;102274.00;;;19.81;80.92
79705;BME280;69940;53.120;8.764;2023-08-20T06:55:29;102272.00;;;19.85;80.97
79705;BME280;69940;53.120;8.764;2023-08-20T06:57:58;102270.00;;;19.90;80.84
79705;BME280;69940;53.120;8.764;2023-08-20T07:00:29;102269.00;;;19.94;80.72
79705;BME280;69940;53.120;8.764;2023-08-20T07:02:58;102268.00;;;19.98;80.34
79705;BME280;69940;53.120;8.764;2023-08-20T07:05:28;102268.00;;;20.03;80.23
79705;BME280;69940;53.120;8.764;2023-08-20T07:07:58;102268.00;;;20.07;80.11
79705;BME280;69940;53.120;8.764;2023-08-20T07:10:28;102268.00;;;20.11;79.93
79705;BME280;69940;53.120;8.764;2023-08-20T07:12:58;102269.00;;;20.15;79.66
79705;BME280;69940;53.120;8.764;2023-08-20T07:15:29;102269.00;;;20.19;79.71
79705;BME280;69940;53.120;8.764;2023-08-20T07:17:59;102273.00;;;20.24;79.49
79705;BME280;69940;53.120;8.764;2023-08-20T07:20:28;102275.00;;;20.28;79.45
79705;BME280;69940;53.120;8.764;2023-08-20T07:22:58;102277.00;;;20.33;79.56
79705;BME280;69940;53.120;8.764;2023-08-20T07:25:29;102277.00;;;20.38;79.60
79705;BME280;69940;53.120;8.764;2023-08-20T07:28:00;102278.00;;;20.42;79.41
79705;BME280;69940;53.120;8.764;2023-08-20T07:30:30;102278.00;;;20.46;79.48
79705;BME280;69940;53.120;8.764;2023-08-20T07:32:59;102278.00;;;20.51;79.53
79705;BME280;69940;53.120;8.764;2023-08-20T07:35:29;102279.00;;;20.55;79.40
79705;BME280;69940;53.120;8.764;2023-08-20T07:37:59;102280.00;;;20.60;79.46
79705;BME280;69940;53.120;8.764;2023-08-20T07:40:28;102281.00;;;20.64;79.38
79705;BME280;69940;53.120;8.764;2023-08-20T07:42:58;102281.00;;;20.68;79.39
79705;BME280;69940;53.120;8.764;2023-08-20T07:45:28;102281.00;;;20.73;79.40
79705;BME280;69940;53.120;8.764;2023-08-20T07:47:59;102281.00;;;20.77;79.57
79705;BME280;69940;53.120;8.764;2023-08-20T07:50:28;102281.00;;;20.81;79.25
79705;BME280;69940;53.120;8.764;2023-08-20T07:52:59;102283.00;;;20.85;79.07
79705;BME280;69940;53.120;8.764;2023-08-20T07:55:29;102284.00;;;20.89;78.76
79705;BME280;69940;53.120;8.764;2023-08-20T07:57:58;102285.00;;;20.93;78.38
79705;BME280;69940;53.120;8.764;2023-08-20T08:00:29;102288.00;;;20.97;78.30
79705;BME280;69940;53.120;8.764;2023-08-20T08:02:58;102290.00;;;21.01;78.40
79705;BME280;69940;53.120;8.764;2023-08-20T08:05:29;102292.00;;;21.05;78.43
79705;BME280;69940;53.120;8.764;2023-08-20T08:07:58;102294.00;;;21.09;78.32
79705;BME280;69940;53.120;8.764;2023-08-20T08:10:28;102296.00;;;21.13;77.90
79705;BME280;69940;53.120;8.764;2023-08-20T08:12:59;102297.00;;;21.17;77.81
79705;BME280;69940;53.120;8.764;2023-08-20T08:15:28;102298.00;;;21.21;77.90
79705;BME280;69940;53.120;8.764;2023-08-20T08:17:59;102300.00;;;21.24;77.60
79705;BME280;69940;53.120;8.764;2023-08-20T08:20:29;102302.00;;;21.28;77.61
79705;BME280;69940;53.120;8.764;2023-08-20T08:22:59;102304.00;;;21.32;77.22
79705;BME280;69940;53.120;8.764;2023-08-20T08:25:29;102305.00;;;21.35;76.92
79705;BME280;69940;53.120;8.764;2023-08-20T08:27:58;102306.00;;;21.39;76.97
79705;BME280;69940;53.120;8.764;2023-08-20T08:30:30;102307.00;;;21.44;77.14
79705;BME280;69940;53.120;8.764;2023-08-20T08:32:59;102305.00;;;21.47;77.13
79705;BME280;69940;53.120;8.764;2023-08-20T08:35:29;102306.00;;;21.51;77.37
79705;BME280;69940;53.120;8.764;2023-08-20T08:37:59;102305.00;;;21.55;77.30
79705;BME280;69940;53.120;8.764;2023-08-20T08:40:29;102303.00;;;21.59;77.15
79705;BME280;69940;53.120;8.764;2023-08-20T08:43:00;102302.00;;;21.63;77.13
79705;BME280;69940;53.120;8.764;2023-08-20T08:45:29;102304.00;;;21.67;77.04
79705;BME280;69940;53.120;8.764;2023-08-20T08:47:59;102304.00;;;21.71;76.85
79705;BME280;69940;53.120;8.764;2023-08-20T08:50:29;102305.00;;;21.75;76.61
79705;BME280;69940;53.120;8.764;2023-08-20T08:52:59;102306.00;;;21.78;76.13
79705;BME280;69940;53.120;8.764;2023-08-20T08:55:29;102304.00;;;21.81;76.20
79705;BME280;69940;53.120;8.764;2023-08-20T08:57:59;102305.00;;;21.84;76.11
79705;BME280;69940;53.120;8.764;2023-08-20T09:00:32;102305.00;;;21.86;75.88
79705;BME280;69940;53.120;8.764;2023-08-20T09:02:59;102306.00;;;21.89;75.64
79705;BME280;69940;53.120;8.764;2023-08-20T09:05:28;102306.00;;;21.93;75.48
79705;BME280;69940;53.120;8.764;2023-08-20T09:08:02;102307.00;;;21.96;75.44
79705;BME280;69940;53.120;8.764;2023-08-20T09:10:29;102310.00;;;22.00;75.44
79705;BME280;69940;53.120;8.764;2023-08-20T09:12:58;102311.00;;;22.04;75.31
79705;BME280;69940;53.120;8.764;2023-08-20T09:15:33;102309.00;;;22.07;75.20
79705;BME280;69940;53.120;8.764;2023-08-20T09:18:00;102309.00;;;22.10;75.33
79705;BME280;69940;53.120;8.764;2023-08-20T09:20:35;102309.00;;;22.14;75.48
79705;BME280;69940;53.120;8.764;2023-08-20T09:22:59;102307.00;;;22.18;75.48
79705;BME280;69940;53.120;8.764;2023-08-20T09:25:28;102306.00;;;22.21;75.26
79705;BME280;69940;53.120;8.764;2023-08-20T09:28:02;102304.00;;;22.24;75.00
79705;BME280;69940;53.120;8.764;2023-08-20T09:30:28;102302.00;;;22.27;75.08
79705;BME280;69940;53.120;8.764;2023-08-20T09:33:10;102299.00;;;22.30;74.98
79705;BME280;69940;53.120;8.764;2023-08-20T09:35:28;102296.00;;;22.33;74.97
79705;BME280;69940;53.120;8.764;2023-08-20T09:38:03;102295.00;;;22.36;75.09
79705;BME280;69940;53.120;8.764;2023-08-20T09:40:31;102293.00;;;22.40;74.71
79705;BME280;69940;53.120;8.764;2023-08-20T09:43:01;102292.00;;;22.43;74.85
79705;BME280;69940;53.120;8.764;2023-08-20T09:45:29;102292.00;;;22.46;74.91
79705;BME280;69940;53.120;8.764;2023-08-20T09:47:59;102292.00;;;22.50;75.08
79705;BME280;69940;53.120;8.764;2023-08-20T09:50:30;102292.00;;;22.54;75.02
79705;BME280;69940;53.120;8.764;2023-08-20T09:53:03;102293.00;;;22.58;74.93
79705;BME280;69940;53.120;8.764;2023-08-20T09:55:33;102292.00;;;22.62;74.73
79705;BME280;69940;53.120;8.764;2023-08-20T09:58:02;102293.00;;;22.66;74.72
79705;BME280;69940;53.120;8.764;2023-08-20T10:00:30;102294.00;;;22.71;75.42
79705;BME280;69940;53.120;8.764;2023-08-20T10:02:59;102295.00;;;22.75;75.03
79705;BME280;69940;53.120;8.764;2023-08-20T10:05:29;102295.00;;;22.80;74.82
79705;BME280;69940;53.120;8.764;2023-08-20T10:07:59;102295.00;;;22.84;74.59
79705;BME280;69940;53.120;8.764;2023-08-20T10:10:29;102295.00;;;22.87;74.54
79705;BME280;69940;53.120;8.764;2023-08-20T10:12:58;102294.00;;;22.91;74.44
79705;BME280;69940;53.120;8.764;2023-08-20T10:15:29;102295.00;;;22.95;74.33
79705;BME280;69940;53.120;8.764;2023-08-20T10:18:00;102295.00;;;22.99;74.28
79705;BME280;69940;53.120;8.764;2023-08-20T10:20:29;102296.00;;;23.02;74.18
79705;BME280;69940;53.120;8.764;2023-08-20T10:23:03;102296.00;;;23.04;74.05
79705;BME280;69940;53.120;8.764;2023-08-20T10:25:29;102296.00;;;23.07;73.92
79705;BME280;69940;53.120;8.764;2023-08-20T10:28:12;102295.00;;;23.10;74.05
79705;BME280;69940;53.120;8.764;2023-08-20T10:30:28;102294.00;;;23.14;73.89
79705;BME280;69940;53.120;8.764;2023-08-20T10:33:04;102293.00;;;23.17;73.89
79705;BME280;69940;53.120;8.764;2023-08-20T10:38:12;102293.00;;;23.25;74.29
79705;BME280;69940;53.120;8.764;2023-08-20T10:40:55;102294.00;;;23.28;74.34
79705;BME280;69940;53.120;8.764;2023-08-20T10:43:01;102295.00;;;23.31;73.95
79705;BME280;69940;53.120;8.764;2023-08-20T10:45:28;102295.00;;;23.35;73.54
79705;BME280;69940;53.120;8.764;2023-08-20T10:47:58;102295.00;;;23.39;73.34
79705;BME280;69940;53.120;8.764;2023-08-20T10:50:29;102295.00;;;23.42;73.56
79705;BME280;69940;53.120;8.764;2023-08-20T10:52:59;102295.00;;;23.48;73.61
79705;BME280;69940;53.120;8.764;2023-08-20T10:55:30;102294.00;;;23.54;73.51
79705;BME280;69940;53.120;8.764;2023-08-20T10:58:04;102293.00;;;23.62;73.09
79705;BME280;69940;53.120;8.764;2023-08-20T11:00:32;102294.00;;;23.69;72.52
79705;BME280;69940;53.120;8.764;2023-08-20T11:02:59;102293.00;;;23.72;72.35
79705;BME280;69940;53.120;8.764;2023-08-20T11:05:28;102292.00;;;23.75;72.73
79705;BME280;69940;53.120;8.764;2023-08-20T11:07:59;102291.00;;;23.77;73.09
79705;BME280;69940;53.120;8.764;2023-08-20T11:10:29;102291.00;;;23.79;72.32
79705;BME280;69940;53.120;8.764;2023-08-20T11:12:58;102290.00;;;23.83;71.67
79705;BME280;69940;53.120;8.764;2023-08-20T11:15:29;102289.00;;;23.87;71.62
79705;BME280;69940;53.120;8.764;2023-08-20T11:17:58;102288.00;;;23.94;71.75
79705;BME280;69940;53.120;8.764;2023-08-20T11:20:30;102288.00;;;24.00;71.49
79705;BME280;69940;53.120;8.764;2023-08-20T11:22:58;102290.00;;;24.05;71.15
79705;BME280;69940;53.120;8.764;2023-08-20T11:25:29;102291.00;;;24.09;71.16
79705;BME280;69940;53.120;8.764;2023-08-20T11:27:59;102290.00;;;24.11;70.98
79705;BME280;69940;53.120;8.764;2023-08-20T11:30:32;102290.00;;;24.12;70.90
79705;BME280;69940;53.120;8.764;2023-08-20T11:32:59;102291.00;;;24.13;70.83
79705;BME280;69940;53.120;8.764;2023-08-20T11:35:29;102293.00;;;24.15;70.97
79705;BME280;69940;53.120;8.764;2023-08-20T11:37:59;102295.00;;;24.18;70.78
79705;BME280;69940;53.120;8.764;2023-08-20T11:40:28;102295.00;;;24.20;70.31
79705;BME280;69940;53.120;8.764;2023-08-20T11:42:59;102297.00;;;24.21;69.24
79705;BME280;69940;53.120;8.764;2023-08-20T11:45:28;102297.00;;;24.20;69.22
79705;BME280;69940;53.120;8.764;2023-08-20T11:47:59;102297.00;;;24.18;69.14
79705;BME280;69940;53.120;8.764;2023-08-20T11:50:29;102296.00;;;24.17;69.20
79705;BME280;69940;53.120;8.764;2023-08-20T11:53:04;102296.00;;;24.18;69.34
79705;BME280;69940;53.120;8.764;2023-08-20T11:55:29;102295.00;;;24.21;69.28
79705;BME280;69940;53.120;8.764;2023-08-20T11:57:59;102293.00;;;24.26;68.64
79705;BME280;69940;53.120;8.764;2023-08-20T12:00:31;102292.00;;;24.32;67.96
79705;BME280;69940;53.120;8.764;2023-08-20T12:02:59;102289.00;;;24.41;67.56
79705;BME280;69940;53.120;8.764;2023-08-20T12:05:29;102288.00;;;24.51;67.10
79705;BME280;69940;53.120;8.764;2023-08-20T12:08:00;102287.00;;;24.60;67.21
79705;BME280;69940;53.120;8.764;2023-08-20T12:10:30;102287.00;;;24.64;67.56
79705;BME280;69940;53.120;8.764;2023-08-20T12:12:59;102286.00;;;24.64;68.25
79705;BME280;69940;53.120;8.764;2023-08-20T12:15:28;102286.00;;;24.62;68.30
79705;BME280;69940;53.120;8.764;2023-08-20T12:18:03;102285.00;;;24.61;68.76
79705;BME280;69940;53.120;8.764;2023-08-20T12:20:30;102283.00;;;24.59;68.64
79705;BME280;69940;53.120;8.764;2023-08-20T12:23:00;102282.00;;;24.58;68.59
79705;BME280;69940;53.120;8.764;2023-08-20T12:25:33;102278.00;;;24.58;67.74
79705;BME280;69940;53.120;8.764;2023-08-20T12:27:59;102276.00;;;24.59;66.87
79705;BME280;69940;53.120;8.764;2023-08-20T12:30:29;102273.00;;;24.62;66.63
79705;BME280;69940;53.120;8.764;2023-08-20T12:32:59;102271.00;;;24.65;66.80
79705;BME280;69940;53.120;8.764;2023-08-20T12:35:29;102270.00;;;24.70;66.39
79705;BME280;69940;53.120;8.764;2023-08-20T12:38:00;102269.00;;;24.74;66.29
79705;BME280;69940;53.120;8.764;2023-08-20T12:40:29;102266.00;;;24.77;66.76
79705;BME280;69940;53.120;8.764;2023-08-20T12:42:59;102265.00;;;24.79;67.10
79705;BME280;69940;53.120;8.764;2023-08-20T12:45:29;102264.00;;;24.81;66.85
79705;BME280;69940;53.120;8.764;2023-08-20T12:47:59;102262.00;;;24.83;66.29
79705;BME280;69940;53.120;8.764;2023-08-20T12:50:29;102260.00;;;24.84;66.12
79705;BME280;69940;53.120;8.764;2023-08-20T12:52:59;102260.00;;;24.84;66.01
79705;BME280;69940;53.120;8.764;2023-08-20T12:55:29;102259.00;;;24.84;65.97
79705;BME280;69940;53.120;8.764;2023-08-20T12:57:59;102259.00;;;24.85;65.79
79705;BME280;69940;53.120;8.764;2023-08-20T13:00:29;102259.00;;;24.87;65.65
79705;BME280;69940;53.120;8.764;2023-08-20T13:02:59;102257.00;;;24.88;65.15
79705;BME280;69940;53.120;8.764;2023-08-20T13:05:29;102257.00;;;24.91;63.72
79705;BME280;69940;53.120;8.764;2023-08-20T13:08:00;102256.00;;;24.93;63.74